• Join FlightAware (Why Join?)
  • Login
  • US Flag 
10:39PM EST


 

Airport Tracker/Info


-or-


 

Live Flight TrackerFlight Track Log ✈ N1108P ✈ 07-May-2013 ✈ KSBA - KBUR

Flight Track Log - Related Links

Times and Time Zones

All times are in EDT time to prevent confusion due to time zone crossing. See the N1108P flight status page for this flight to view local times or setup timezone preferences in your user account.

Time Position Orientation Groundspeed Altitude Reporting Facility
EDT Latitude Longitude Course Direction KTS MPH feet Rate Location/Type
10:47AM 34.4050 -119.8344 100° East 99 114 600  Level Los Angeles Center
10:48AM 34.3792 -119.8247 163° South 95 109 1,300 660 Climbing Los Angeles Center
10:49AM 34.3725 -119.8239 174° South 116 133 1,500 540 Climbing Los Angeles Center
10:49AM 34.3644 -119.7981 111° Southeast 102 117 1,900 540 Climbing Los Angeles Center
10:50AM 34.3603 -119.7956 154° Southeast 99 114 2,100 540 Climbing Los Angeles Center
10:50AM 34.3589 -119.7633 93° East 101 116 2,500 540 Climbing Los Angeles Center
10:51AM 34.3561 -119.7606 140° Southeast 100 115 2,700 540 Climbing Los Angeles Center
10:52AM 34.3539 -119.7311 95° East 96 110 3,100 540 Climbing Los Angeles Center
10:52AM 34.3528 -119.7281 114° Southeast 99 114 3,300 480 Climbing Los Angeles Center
10:53AM 34.3902 -119.5960 100° East  Level Estimated
10:53AM 34.3489 -119.6989 99° East 98 113 3,600  Level Los Angeles Center
10:53AM 34.3475 -119.6889 100° East 99 114 3,900 600 Climbing Los Angeles Center
10:53AM 34.3536 -119.6742 63° Northeast 102 117 4,000 480 Climbing Los Angeles Center
10:54AM 34.3408 -119.6542 128° Southeast 101 116 4,400 480 Climbing Los Angeles Center
10:54AM 34.3456 -119.6272 78° East 109 125 4,700 540 Climbing Los Angeles Center
10:55AM 34.3353 -119.6178 143° Southeast 106 122 5,000 480 Climbing Los Angeles Center
10:55AM 34.3392 -119.5875 81° East 113 130 5,200 480 Climbing Los Angeles Center
10:56AM 34.3294 -119.5786 143° Southeast 112 129 5,500 480 Climbing Los Angeles Center
10:56AM 34.3311 -119.5511 86° East 117 135 5,700 240 Climbing Los Angeles Center
10:57AM 34.3236 -119.5408 131° Southeast 114 131 5,800 -240 Climbing Los Angeles Center
10:57AM 34.3225 -119.5122 93° East 132 152 5,500 -240 Descending Los Angeles Center
10:58AM 34.3144 -119.4922 116° Southeast 132 152 5,600  Climbing Los Angeles Center
10:58AM 34.3156 -119.4600 88° East 156 180 5,500  Descending Los Angeles Center
10:59AM 34.3058 -119.4442 127° Southeast 142 163 5,600  Climbing Los Angeles Center
10:59AM 34.3072 -119.4131 87° East 147 169 5,500  Descending Los Angeles Center
11:00AM 34.2986 -119.3847 110° East 146 168 5,600  Climbing Los Angeles Center
11:00AM 34.2992 -119.3661 88° East 146 168 5,500  Descending Los Angeles Center
11:01AM 34.2919 -119.3356 106° East 148 170 5,600  Climbing Los Angeles Center
11:01AM 34.2914 -119.3219 93° East 150 173 5,500  Descending Los Angeles Center
11:02AM 34.2839 -119.2867 104° East 148 170 5,600  Climbing Los Angeles Center
11:02AM 34.2828 -119.2725 95° East 149 171 5,500  Descending Los Angeles Center
11:03AM 34.2756 -119.2386 104° East 148 170 5,600  Climbing Los Angeles Center
11:04AM 34.2675 -119.1903 101° East 147 169 5,600  Level Los Angeles Center
11:05AM 34.2597 -119.1419 101° East 147 169 5,600  Level Los Angeles Center
11:06AM 34.2522 -119.0939 101° East 147 169 5,600 -120 Level Los Angeles Center
11:06AM 34.2486 -119.0703 100° East 147 169 5,500  Descending Los Angeles Center
11:07AM 34.2431 -119.0358 101° East 147 169 5,600  Climbing Los Angeles Center
11:08AM 34.2356 -118.9872 101° East 147 169 5,600 -60 Level Los Angeles Center
11:09AM 34.2281 -118.9381 100° East 148 170 5,500 -60 Descending Los Angeles Center
11:10AM 34.2192 -118.8892 102° East 148 170 5,500 -120 Level Los Angeles Center
11:11AM 34.2119 -118.8378 100° East 154 177 5,300 -240 Descending Los Angeles Center
11:12AM 34.2006 -118.7878 105° East 153 176 5,100 -300 Descending Los Angeles Center
11:13AM 34.1886 -118.7283 104° East 152 175 4,800 -420 Descending Los Angeles Center
11:14AM 34.1858 -118.6742 94° East 155 178 4,300 -480 Descending Los Angeles Center
11:16AM 34.2000 -118.6000 77° East 160 184 3,800 -420 Descending Southern California TRACON
11:17AM 34.2000 -118.5500 90° East 157 181 3,400 -420 Descending Southern California TRACON
11:18AM 34.2000 -118.5000 90° East 153 176 3,000 -720 Descending Southern California TRACON
11:19AM 34.2000 -118.4500 90° East 151 174 2,000 -840 Descending Southern California TRACON
11:20AM 34.2000 -118.4000 90° East 128 147 1,400 -480 Descending Southern California TRACON
11:21AM 34.1989 -118.3714 93° East 143 165 1,100 -300 Descending Los Angeles Center